createdAt,value
2018-02-27T00:00:22.418Z,-5.77
2018-02-27T00:03:25.770Z,-5.73
2018-02-27T00:06:28.921Z,-5.72
2018-02-27T00:09:32.135Z,-5.68
2018-02-27T00:12:35.586Z,-5.70
2018-02-27T00:15:38.834Z,-5.69
2018-02-27T00:18:42.029Z,-5.72
2018-02-27T00:21:45.298Z,-5.74
2018-02-27T00:24:48.535Z,-5.76
2018-02-27T00:27:52.356Z,-5.84
2018-02-27T00:30:55.511Z,-5.91
2018-02-27T00:33:58.723Z,-5.91
2018-02-27T00:37:02.417Z,-5.94
2018-02-27T00:40:05.673Z,-5.90
2018-02-27T00:43:08.955Z,-5.88
2018-02-27T00:46:12.238Z,-5.93
2018-02-27T00:49:15.416Z,-6.08
2018-02-27T00:52:18.670Z,-6.04
2018-02-27T00:55:24.025Z,-6.01
2018-02-27T00:58:27.318Z,-6.01
2018-02-27T01:01:30.526Z,-6.01
2018-02-27T01:04:33.732Z,-6.07
2018-02-27T01:07:36.922Z,-6.14
2018-02-27T01:10:40.122Z,-6.15
2018-02-27T01:13:43.422Z,-6.19
2018-02-27T01:16:46.695Z,-6.14
2018-02-27T01:19:49.905Z,-6.17
2018-02-27T01:22:53.404Z,-6.22
2018-02-27T01:25:56.702Z,-6.24
2018-02-27T01:28:59.984Z,-6.24
2018-02-27T01:32:03.220Z,-6.24
2018-02-27T01:35:06.529Z,-6.25
2018-02-27T01:38:09.806Z,-6.25
2018-02-27T01:41:13.002Z,-6.28
2018-02-27T01:44:16.338Z,-6.20
2018-02-27T01:47:19.489Z,-6.29
2018-02-27T01:50:23.713Z,-6.26
2018-02-27T01:53:26.934Z,-6.30
2018-02-27T01:56:30.102Z,-6.36
2018-02-27T01:59:33.351Z,-6.44
2018-02-27T02:02:36.562Z,-6.42
2018-02-27T02:05:39.869Z,-6.41
2018-02-27T02:08:43.148Z,-6.43
2018-02-27T02:11:46.549Z,-6.46
2018-02-27T02:14:50.809Z,-6.48
2018-02-27T02:17:55.726Z,-6.57
2018-02-27T02:21:03.315Z,-6.50
2018-02-27T02:24:06.590Z,-6.49
2018-02-27T02:27:09.804Z,-6.53
2018-02-27T02:30:13.184Z,-6.49
2018-02-27T02:33:16.379Z,-6.54
2018-02-27T02:36:19.660Z,-6.65
2018-02-27T02:42:59.339Z,-6.66
2018-02-27T02:46:02.481Z,-6.64
2018-02-27T02:49:05.766Z,-6.64
2018-02-27T02:52:08.993Z,-6.66
2018-02-27T02:55:12.200Z,-6.64
2018-02-27T02:58:15.462Z,-6.69
2018-02-27T03:01:18.721Z,-6.71
2018-02-27T03:04:22.669Z,-6.67
2018-02-27T03:07:26.015Z,-6.64
2018-02-27T03:10:29.269Z,-6.78
2018-02-27T03:13:32.579Z,-6.75
2018-02-27T03:16:35.850Z,-6.69
2018-02-27T03:19:39.162Z,-6.70
2018-02-27T03:22:42.384Z,-6.56
2018-02-27T03:25:45.657Z,-6.60
2018-02-27T03:28:48.884Z,-6.60
2018-02-27T03:31:52.669Z,-6.62
2018-02-27T03:34:55.990Z,-6.66
2018-02-27T03:37:59.124Z,-6.80
2018-02-27T03:41:02.282Z,-6.81
2018-02-27T03:44:05.541Z,-6.78
2018-02-27T03:47:09.304Z,-6.84
2018-02-27T03:50:12.578Z,-6.90
2018-02-27T03:53:15.763Z,-6.97
2018-02-27T03:56:18.998Z,-6.93
2018-02-27T03:59:22.679Z,-6.91
2018-02-27T04:02:25.960Z,-6.83
2018-02-27T04:05:29.212Z,-6.92
2018-02-27T04:08:32.413Z,-6.95
2018-02-27T04:11:35.649Z,-6.94
2018-02-27T04:14:39.008Z,-6.97
2018-02-27T04:17:42.266Z,-6.96
2018-02-27T04:20:45.513Z,-6.98
2018-02-27T04:27:20.156Z,-6.98
2018-02-27T04:30:24.837Z,-7.08
2018-02-27T04:33:28.058Z,-7.02
2018-02-27T04:36:31.361Z,-7.08
2018-02-27T04:39:34.655Z,-7.07
2018-02-27T04:42:37.973Z,-7.01
2018-02-27T04:45:41.211Z,-7.11
2018-02-27T04:48:44.468Z,-7.06
2018-02-27T04:55:18.274Z,-7.07
2018-02-27T04:58:22.591Z,-6.98
2018-02-27T05:01:25.848Z,-6.87
2018-02-27T05:04:29.111Z,-6.92
2018-02-27T05:07:32.335Z,-6.94
2018-02-27T05:10:35.529Z,-6.87
2018-02-27T05:13:38.808Z,-6.76
2018-02-27T05:16:42.008Z,-6.78
2018-02-27T05:19:45.310Z,-6.70
2018-02-27T05:22:48.510Z,-6.61
2018-02-27T05:25:51.812Z,-6.63
2018-02-27T05:28:55.048Z,-6.58
2018-02-27T05:31:58.294Z,-6.58
2018-02-27T05:35:01.601Z,-6.56
2018-02-27T05:38:04.996Z,-6.58
2018-02-27T05:41:08.229Z,-6.59
2018-02-27T05:44:11.416Z,-6.60
2018-02-27T05:47:14.630Z,-6.68
2018-02-27T05:50:17.854Z,-6.82
2018-02-27T05:53:21.025Z,-6.80
2018-02-27T05:56:25.142Z,-6.92
2018-02-27T05:59:28.617Z,-7.21
2018-02-27T06:02:31.961Z,-7.21
2018-02-27T06:05:35.388Z,-7.17
2018-02-27T06:08:38.605Z,-7.09
2018-02-27T06:11:41.921Z,-7.03
2018-02-27T06:14:45.131Z,-7.02
2018-02-27T06:17:48.362Z,-7.04
2018-02-27T06:20:51.622Z,-7.01
2018-02-27T06:23:54.983Z,-7.16
2018-02-27T06:26:58.298Z,-7.24
2018-02-27T06:30:01.581Z,-7.38
2018-02-27T06:33:04.876Z,-7.41
2018-02-27T06:36:08.206Z,-7.40
2018-02-27T06:39:11.393Z,-7.32
2018-02-27T06:42:14.685Z,-7.25
2018-02-27T06:45:18.231Z,-7.17
2018-02-27T06:48:21.470Z,-7.07
2018-02-27T06:51:24.684Z,-7.02
2018-02-27T06:54:29.007Z,-7.14
2018-02-27T06:57:32.224Z,-7.18
2018-02-27T07:00:35.492Z,-7.00
2018-02-27T07:03:38.683Z,-6.94
2018-02-27T07:06:41.919Z,-6.89
2018-02-27T07:09:45.185Z,-6.78
2018-02-27T07:12:48.522Z,-6.65
2018-02-27T07:15:51.701Z,-6.57
2018-02-27T07:18:55.070Z,-6.61
2018-02-27T07:21:58.382Z,-6.56
2018-02-27T07:25:01.682Z,-6.79
2018-02-27T07:28:06.709Z,-6.79
2018-02-27T07:31:10.082Z,-6.88
2018-02-27T07:34:13.295Z,-6.91
2018-02-27T07:37:17.495Z,-6.83
2018-02-27T07:40:20.713Z,-6.82
2018-02-27T07:43:23.983Z,-6.72
2018-02-27T07:46:27.158Z,-6.46
2018-02-27T07:49:30.399Z,-6.48
2018-02-27T07:52:33.725Z,-6.68
2018-02-27T07:55:37.062Z,-6.50
2018-02-27T07:58:40.235Z,-6.33
2018-02-27T08:01:43.470Z,-6.30
2018-02-27T08:04:46.972Z,-6.39
2018-02-27T08:07:50.217Z,-6.07
2018-02-27T08:10:54.619Z,-5.92
2018-02-27T08:13:57.941Z,-6.43
2018-02-27T08:17:01.144Z,-6.69
2018-02-27T08:20:04.503Z,-6.78
2018-02-27T08:23:07.783Z,-6.80
2018-02-27T08:26:11.003Z,-6.65
2018-02-27T08:29:14.253Z,-6.62
2018-02-27T08:32:17.515Z,-6.39
2018-02-27T08:35:20.801Z,-6.25
2018-02-27T08:38:24.097Z,-6.06
2018-02-27T08:41:27.397Z,-5.92
2018-02-27T08:44:30.702Z,-5.80
2018-02-27T08:47:34.002Z,-5.59
2018-02-27T08:50:37.185Z,-5.35
2018-02-27T08:53:40.427Z,-5.40
2018-02-27T08:56:43.617Z,-5.29
2018-02-27T08:59:46.807Z,-5.18
2018-02-27T09:02:50.073Z,-5.15
2018-02-27T09:05:53.213Z,-4.99
2018-02-27T09:08:56.476Z,-5.03
2018-02-27T09:11:59.759Z,-5.06
2018-02-27T09:15:03.163Z,-5.22
2018-02-27T09:18:06.430Z,-5.19
2018-02-27T09:21:09.910Z,-5.14
2018-02-27T09:24:13.099Z,-4.97
2018-02-27T09:27:16.378Z,-5.17
2018-02-27T09:30:19.723Z,-5.16
2018-02-27T09:33:22.902Z,-5.09
2018-02-27T09:36:26.154Z,-4.86
2018-02-27T09:39:29.442Z,-4.77
2018-02-27T09:42:32.768Z,-4.50
2018-02-27T09:45:35.914Z,-4.49
2018-02-27T09:48:39.253Z,-4.53
2018-02-27T09:51:42.550Z,-4.55
2018-02-27T09:54:45.905Z,-4.40
2018-02-27T09:57:50.313Z,-4.23
2018-02-27T10:00:53.486Z,-4.04
2018-02-27T10:03:56.686Z,-3.91
2018-02-27T10:06:59.891Z,-4.18
2018-02-27T10:10:03.290Z,-3.87
2018-02-27T10:13:06.547Z,-3.75
2018-02-27T10:19:40.609Z,-3.35
2018-02-27T10:22:44.001Z,-3.47
2018-02-27T10:25:47.186Z,-4.24
2018-02-27T10:28:50.380Z,-4.26
2018-02-27T10:31:53.864Z,-3.68
2018-02-27T10:34:57.066Z,-3.57
2018-02-27T10:38:00.222Z,-3.55
2018-02-27T10:41:03.462Z,-3.35
2018-02-27T10:44:06.708Z,-3.26
2018-02-27T10:47:10.436Z,-3.23
2018-02-27T10:50:13.722Z,-3.06
2018-02-27T10:53:16.935Z,-3.14
2018-02-27T10:56:20.819Z,-2.80
2018-02-27T10:59:24.128Z,-2.91
2018-02-27T11:02:27.378Z,-3.06
2018-02-27T11:05:31.310Z,-2.71
2018-02-27T11:08:34.529Z,-2.92
2018-02-27T11:11:44.944Z,-2.76
2018-02-27T11:14:49.196Z,-2.91
2018-02-27T11:17:52.506Z,-2.73
2018-02-27T11:20:55.794Z,-2.45
2018-02-27T11:23:59.183Z,-2.46
2018-02-27T11:27:02.502Z,-3.00
2018-02-27T11:30:05.720Z,-2.78
2018-02-27T11:33:08.994Z,-2.24
2018-02-27T11:36:12.190Z,-2.01
2018-02-27T11:39:15.369Z,-1.92
2018-02-27T11:42:19.054Z,-1.97
2018-02-27T11:45:22.282Z,-1.79
2018-02-27T11:48:25.438Z,-2.03
2018-02-27T11:51:28.572Z,-1.93
2018-02-27T11:54:31.744Z,-1.85
2018-02-27T11:57:34.960Z,-1.87
2018-02-27T12:00:38.194Z,-1.56
2018-02-27T12:03:41.406Z,-1.74
2018-02-27T12:06:44.696Z,-1.75
2018-02-27T12:09:47.953Z,-1.76
2018-02-27T12:12:51.881Z,-1.52
2018-02-27T12:15:55.161Z,-1.67
2018-02-27T12:18:58.386Z,-1.71
2018-02-27T12:22:01.591Z,-1.64
2018-02-27T12:25:04.837Z,-1.69
2018-02-27T12:28:08.068Z,-1.34
2018-02-27T12:31:11.329Z,-1.28
2018-02-27T12:34:14.638Z,-1.43
2018-02-27T12:37:17.948Z,-1.32
2018-02-27T12:40:22.408Z,-1.23
2018-02-27T12:43:25.645Z,-1.40
2018-02-27T12:46:28.923Z,-1.63
2018-02-27T12:49:32.091Z,-1.59
2018-02-27T12:52:36.302Z,-1.48
2018-02-27T12:55:39.586Z,-1.65
2018-02-27T12:58:42.904Z,-1.56
2018-02-27T13:01:46.100Z,-1.27
2018-02-27T13:04:50.190Z,-1.12
2018-02-27T13:07:53.418Z,-0.90
2018-02-27T13:10:56.720Z,-1.07
2018-02-27T13:13:59.992Z,-1.56
2018-02-27T13:17:03.201Z,-1.79
2018-02-27T13:20:06.834Z,-1.50
2018-02-27T13:23:10.002Z,-1.30
2018-02-27T13:26:13.315Z,-1.30
2018-02-27T13:29:16.583Z,-1.22
2018-02-27T13:32:20.529Z,-0.98
2018-02-27T13:35:23.778Z,-1.10
2018-02-27T13:38:27.089Z,-0.83
2018-02-27T13:41:30.297Z,-1.11
2018-02-27T13:44:33.503Z,-0.80
2018-02-27T13:47:37.979Z,-0.64
2018-02-27T13:50:41.280Z,-0.78
2018-02-27T13:53:44.527Z,-0.65
2018-02-27T13:56:47.937Z,-1.54
2018-02-27T13:59:51.645Z,-1.52
2018-02-27T14:02:54.767Z,-1.46
2018-02-27T14:05:57.877Z,-1.10
2018-02-27T14:09:04.584Z,-0.75
2018-02-27T14:12:07.677Z,-0.71
2018-02-27T14:15:13.929Z,-0.57
2018-02-27T14:18:18.215Z,-0.55
2018-02-27T14:21:21.324Z,-0.69
2018-02-27T14:24:24.396Z,-0.52
2018-02-27T14:27:27.608Z,-0.70
2018-02-27T14:30:30.727Z,-0.79
2018-02-27T14:33:37.405Z,-0.68
2018-02-27T14:36:40.588Z,-1.06
2018-02-27T14:39:43.685Z,-1.26
2018-02-27T14:42:46.784Z,-0.95
2018-02-27T14:45:50.049Z,-0.55
2018-02-27T14:48:53.134Z,-0.34
2018-02-27T14:51:56.228Z,-0.05
2018-02-27T14:54:59.355Z,-0.23
2018-02-27T14:58:06.178Z,-0.25
2018-02-27T15:01:09.285Z,-0.66
2018-02-27T15:04:12.383Z,-0.92
2018-02-27T15:07:15.471Z,-0.92
2018-02-27T15:10:18.576Z,-1.00
2018-02-27T15:13:21.696Z,-1.43
2018-02-27T15:16:24.787Z,-1.98
2018-02-27T15:19:27.890Z,-2.08
2018-02-27T15:22:30.975Z,-2.13
2018-02-27T15:25:34.077Z,-1.93
2018-02-27T15:28:37.199Z,-1.73
2018-02-27T15:31:40.288Z,-1.89
2018-02-27T15:34:43.375Z,-1.98
2018-02-27T15:37:46.523Z,-1.79
2018-02-27T15:40:49.589Z,-2.08
2018-02-27T15:43:52.738Z,-2.03
2018-02-27T15:46:57.358Z,-2.06
2018-02-27T15:50:00.520Z,-1.98
2018-02-27T15:53:03.617Z,-2.02
2018-02-27T15:56:06.705Z,-2.24
2018-02-27T15:59:09.801Z,-2.19
2018-02-27T16:02:12.882Z,-2.24
2018-02-27T16:05:16.168Z,-2.24
2018-02-27T16:08:20.280Z,-2.26
2018-02-27T16:11:23.367Z,-2.56
2018-02-27T16:14:26.484Z,-2.52
2018-02-27T16:17:29.576Z,-2.53
2018-02-27T16:20:32.669Z,-2.41
2018-02-27T16:23:35.772Z,-2.40
2018-02-27T16:26:38.904Z,-2.39
2018-02-27T16:29:42.479Z,-2.35
2018-02-27T16:32:45.649Z,-2.47
2018-02-27T16:35:48.863Z,-2.47
2018-02-27T16:38:52.952Z,-2.51
2018-02-27T16:41:56.096Z,-2.42
2018-02-27T16:44:59.227Z,-2.32
2018-02-27T16:48:02.398Z,-2.37
2018-02-27T16:51:05.584Z,-2.31
2018-02-27T16:54:08.753Z,-2.32
2018-02-27T16:57:11.928Z,-2.25
2018-02-27T17:00:15.648Z,-2.33
2018-02-27T17:03:19.171Z,-2.38
2018-02-27T17:06:22.288Z,-2.45
2018-02-27T17:09:25.418Z,-2.52
2018-02-27T17:12:28.548Z,-2.70
2018-02-27T17:15:31.648Z,-2.66
2018-02-27T17:18:34.760Z,-2.62
2018-02-27T17:21:37.896Z,-2.65
2018-02-27T17:24:41.137Z,-2.69
2018-02-27T17:27:44.256Z,-2.65
2018-02-27T17:30:47.382Z,-2.49
2018-02-27T17:33:50.704Z,-2.40
2018-02-27T17:36:53.861Z,-2.44
2018-02-27T17:39:56.959Z,-2.54
2018-02-27T17:43:00.069Z,-2.58
2018-02-27T17:46:03.188Z,-2.53
2018-02-27T17:49:06.264Z,-2.48
2018-02-27T17:52:09.452Z,-2.42
2018-02-27T17:55:12.524Z,-2.60
2018-02-27T17:58:15.662Z,-2.57
2018-02-27T18:01:18.809Z,-2.55
2018-02-27T18:04:21.980Z,-2.44
2018-02-27T18:07:25.162Z,-2.48
2018-02-27T18:10:28.348Z,-2.28
2018-02-27T18:13:31.539Z,-2.13
2018-02-27T18:16:34.751Z,-2.12
2018-02-27T18:19:37.928Z,-2.19
2018-02-27T18:22:41.201Z,-2.46
2018-02-27T18:25:44.404Z,-2.54
2018-02-27T18:28:47.644Z,-2.48
2018-02-27T18:32:01.624Z,-2.31
2018-02-27T18:35:09.936Z,-2.25
2018-02-27T18:38:13.135Z,-2.39
2018-02-27T18:41:16.301Z,-2.54
2018-02-27T18:44:29.804Z,-2.48
2018-02-27T18:47:33.955Z,-2.49
2018-02-27T18:50:46.712Z,-2.59
2018-02-27T18:54:01.516Z,-2.56
2018-02-27T18:57:04.684Z,-2.53
2018-02-27T19:00:15.133Z,-2.58
2018-02-27T19:03:18.388Z,-3.01
2018-02-27T19:06:21.556Z,-3.32
2018-02-27T19:09:24.786Z,-3.47
2018-02-27T19:12:28.025Z,-3.47
2018-02-27T19:15:34.293Z,-3.47
2018-02-27T19:18:37.484Z,-3.52
2018-02-27T19:21:40.669Z,-3.50
2018-02-27T19:24:54.198Z,-3.50
2018-02-27T19:28:03.226Z,-3.40
2018-02-27T19:31:06.391Z,-3.36
2018-02-27T19:34:09.688Z,-3.23
2018-02-27T19:37:13.067Z,-3.23
2018-02-27T19:40:16.205Z,-3.24
2018-02-27T19:43:21.025Z,-3.22
2018-02-27T19:46:24.243Z,-3.23
2018-02-27T19:49:27.469Z,-3.27
2018-02-27T19:52:30.762Z,-3.28
2018-02-27T19:55:35.168Z,-3.37
2018-02-27T19:58:38.433Z,-3.43
2018-02-27T20:01:41.649Z,-3.56
2018-02-27T20:04:45.178Z,-3.73
2018-02-27T20:07:48.472Z,-3.91
2018-02-27T20:10:51.886Z,-3.91
2018-02-27T20:13:54.986Z,-3.86
2018-02-27T20:16:58.176Z,-3.92
2018-02-27T20:20:01.541Z,-3.93
2018-02-27T20:23:08.832Z,-3.99
2018-02-27T20:26:11.992Z,-4.16
2018-02-27T20:29:21.804Z,-4.27
2018-02-27T20:32:24.987Z,-4.31
2018-02-27T20:35:28.123Z,-4.38
2018-02-27T20:38:35.417Z,-4.39
2018-02-27T20:41:38.612Z,-4.31
2018-02-27T20:44:41.993Z,-4.35
2018-02-27T20:47:45.216Z,-4.43
2018-02-27T20:50:48.589Z,-4.56
2018-02-27T20:53:51.700Z,-4.61
2018-02-27T20:56:54.848Z,-4.76
2018-02-27T20:59:58.246Z,-4.79
2018-02-27T21:03:01.389Z,-4.85
2018-02-27T21:06:04.479Z,-4.88
2018-02-27T21:09:08.060Z,-4.88
2018-02-27T21:12:11.231Z,-4.92
2018-02-27T21:15:14.485Z,-4.88
2018-02-27T21:18:19.715Z,-4.98
2018-02-27T21:21:26.709Z,-5.13
2018-02-27T21:24:35.173Z,-5.14
2018-02-27T21:27:45.513Z,-5.20
2018-02-27T21:30:50.936Z,-5.29
2018-02-27T21:33:58.788Z,-5.36
2018-02-27T21:37:02.908Z,-5.42
2018-02-27T21:40:11.617Z,-5.52
2018-02-27T21:43:14.833Z,-5.55
2018-02-27T21:46:27.723Z,-5.66
2018-02-27T21:49:31.923Z,-5.86
2018-02-27T21:52:35.381Z,-5.97
2018-02-27T21:55:38.575Z,-6.01
2018-02-27T21:58:41.692Z,-5.94
2018-02-27T22:01:45.880Z,-5.82
2018-02-27T22:04:49.092Z,-5.92
2018-02-27T22:08:02.168Z,-6.15
2018-02-27T22:11:05.356Z,-6.24
2018-02-27T22:14:08.600Z,-6.44
2018-02-27T22:17:28.339Z,-6.54
2018-02-27T22:20:31.533Z,-6.60
2018-02-27T22:23:35.685Z,-6.58
2018-02-27T22:26:38.949Z,-6.48
2018-02-27T22:29:42.145Z,-6.36
2018-02-27T22:32:46.303Z,-6.38
2018-02-27T22:35:49.561Z,-6.36
2018-02-27T22:38:52.761Z,-6.32
2018-02-27T22:41:55.976Z,-6.21
2018-02-27T22:44:59.212Z,-6.33
2018-02-27T22:48:02.407Z,-6.34
2018-02-27T22:51:13.273Z,-6.41
2018-02-27T22:54:17.483Z,-6.37
2018-02-27T22:57:20.722Z,-6.41
2018-02-27T23:00:32.867Z,-6.51
2018-02-27T23:03:44.096Z,-6.56
2018-02-27T23:06:48.548Z,-6.68
2018-02-27T23:09:51.774Z,-6.67
2018-02-27T23:12:54.965Z,-6.71
2018-02-27T23:15:59.112Z,-6.79
2018-02-27T23:19:02.327Z,-6.85
2018-02-27T23:22:05.465Z,-6.85
2018-02-27T23:25:12.813Z,-6.82
2018-02-27T23:28:17.474Z,-6.70
2018-02-27T23:31:26.265Z,-6.62
2018-02-27T23:34:53.616Z,-6.63
2018-02-27T23:37:57.784Z,-6.63
2018-02-27T23:41:01.924Z,-6.63
2018-02-27T23:44:05.037Z,-6.58
2018-02-27T23:47:15.309Z,-6.52
2018-02-27T23:50:18.541Z,-6.41
2018-02-27T23:53:21.688Z,-6.34
2018-02-27T23:56:24.870Z,-6.27
2018-02-27T23:59:30.094Z,-6.30
